TimeMDT,TemperatureF,Dew PointF,Humidity,Sea Level PressureIn,VisibilityMPH,Wind Direction,Wind SpeedMPH,Gust SpeedMPH,PrecipitationIn,Events,Conditions,WindDirDegrees,DateUTC
12:15 AM,35.6,21.2,56,30.41,10.0,Calm,Calm,-,N/A,,Clear,0,2013-05-03 06:15:00
12:35 AM,32.0,23.0,69,30.41,10.0,Calm,Calm,-,N/A,,Clear,0,2013-05-03 06:35:00
12:55 AM,30.2,21.2,69,30.41,10.0,Calm,Calm,-,N/A,,Clear,0,2013-05-03 06:55:00
1:15 AM,32.0,23.0,69,30.41,10.0,SSE,3.5,-,N/A,,Clear,150,2013-05-03 07:15:00
1:35 AM,32.0,21.2,64,30.40,10.0,Calm,Calm,-,N/A,,Clear,0,2013-05-03 07:35:00
1:55 AM,32.0,21.2,64,30.40,10.0,SE,4.6,-,N/A,,Clear,140,2013-05-03 07:55:00
2:15 AM,28.4,21.2,74,30.39,10.0,Calm,Calm,-,N/A,,Clear,0,2013-05-03 08:15:00
2:35 AM,28.4,21.2,74,30.39,10.0,Calm,Calm,-,N/A,,Clear,0,2013-05-03 08:35:00
2:55 AM,32.0,23.0,69,30.38,10.0,Calm,Calm,-,N/A,,Clear,0,2013-05-03 08:55:00
3:15 AM,30.2,21.2,69,30.38,10.0,Calm,Calm,-,N/A,,Clear,0,2013-05-03 09:15:00
3:35 AM,28.4,23.0,80,30.37,10.0,Calm,Calm,-,N/A,,Clear,0,2013-05-03 09:35:00
3:55 AM,26.6,21.2,80,30.36,10.0,Calm,Calm,-,N/A,,Clear,0,2013-05-03 09:55:00
4:15 AM,28.4,21.2,74,30.35,10.0,Calm,Calm,-,N/A,,Clear,0,2013-05-03 10:15:00
4:35 AM,26.6,19.4,74,30.35,10.0,Calm,Calm,-,N/A,,Clear,0,2013-05-03 10:35:00
4:55 AM,26.6,21.2,80,30.34,10.0,Calm,Calm,-,N/A,,Clear,0,2013-05-03 10:55:00
5:15 AM,26.6,21.2,80,30.34,10.0,Calm,Calm,-,N/A,,Clear,0,2013-05-03 11:15:00
5:35 AM,26.6,21.2,80,30.34,10.0,Calm,Calm,-,N/A,,Clear,0,2013-05-03 11:35:00
5:55 AM,26.6,19.4,74,30.33,10.0,Calm,Calm,-,N/A,,Clear,0,2013-05-03 11:55:00
6:15 AM,24.8,19.4,80,30.33,10.0,SE,3.5,-,N/A,,Clear,130,2013-05-03 12:15:00
6:35 AM,23.0,19.4,86,30.32,10.0,Calm,Calm,-,N/A,,Clear,0,2013-05-03 12:35:00
6:55 AM,26.6,21.2,80,30.32,10.0,Calm,Calm,-,N/A,,Clear,0,2013-05-03 12:55:00
7:15 AM,28.4,23.0,80,30.32,10.0,Calm,Calm,-,N/A,,Clear,0,2013-05-03 13:15:00
7:35 AM,32.0,23.0,69,30.32,10.0,Calm,Calm,-,N/A,,Clear,0,2013-05-03 13:35:00
7:55 AM,32.0,26.6,80,30.31,10.0,Calm,Calm,-,N/A,,Clear,0,2013-05-03 13:55:00
8:15 AM,33.8,26.6,75,30.31,10.0,Calm,Calm,-,N/A,,Clear,0,2013-05-03 14:15:00
8:55 AM,37.4,26.6,65,30.29,10.0,Calm,Calm,-,N/A,,Clear,0,2013-05-03 14:55:00
9:15 AM,39.2,24.8,56,30.28,10.0,Calm,Calm,-,N/A,,Clear,0,2013-05-03 15:15:00
9:35 AM,41.0,23.0,49,30.27,10.0,Calm,Calm,-,N/A,,Clear,0,2013-05-03 15:35:00
9:55 AM,44.6,19.4,37,30.26,10.0,Calm,Calm,-,N/A,,Clear,0,2013-05-03 15:55:00
10:15 AM,46.4,21.2,37,30.25,10.0,Calm,Calm,-,N/A,Thunderstorm,Thunderstorm,0,2013-05-03 16:15:00
10:35 AM,50.0,21.2,32,30.23,10.0,Calm,Calm,-,N/A,Thunderstorm,Thunderstorm,0,2013-05-03 16:35:00
10:55 AM,51.8,21.2,30,30.22,10.0,Calm,Calm,-,N/A,,Clear,0,2013-05-03 16:55:00
11:35 AM,55.4,21.2,26,30.19,10.0,Calm,Calm,-,N/A,,Clear,0,2013-05-03 17:35:00
11:55 AM,59.0,21.2,23,30.18,10.0,Calm,Calm,-,N/A,,Clear,0,2013-05-03 17:55:00
12:15 PM,60.8,19.4,20,30.17,10.0,Calm,Calm,-,N/A,,Clear,0,2013-05-03 18:15:00
12:35 PM,62.6,5.0,10,30.16,10.0,Calm,Calm,-,N/A,,Clear,0,2013-05-03 18:35:00
12:55 PM,62.6,1.4,9,30.14,10.0,Calm,Calm,-,N/A,,Clear,0,2013-05-03 18:55:00
1:15 PM,64.4,8.6,11,30.12,10.0,Calm,Calm,-,N/A,,Clear,0,2013-05-03 19:15:00
1:35 PM,64.4,10.4,12,30.11,10.0,Calm,Calm,-,N/A,,Clear,0,2013-05-03 19:35:00
1:55 PM,64.4,12.2,13,30.11,10.0,NNE,3.5,-,N/A,,Clear,20,2013-05-03 19:55:00
2:15 PM,66.2,8.6,11,30.10,10.0,Calm,Calm,-,N/A,,Clear,0,2013-05-03 20:15:00
2:35 PM,68.0,6.8,9,30.09,10.0,Calm,Calm,-,N/A,,Clear,0,2013-05-03 20:35:00
2:55 PM,69.8,12.2,11,30.08,10.0,WSW,8.1,-,N/A,,Clear,250,2013-05-03 20:55:00
3:15 PM,69.8,15.8,13,30.07,10.0,WSW,10.4,-,N/A,,Clear,240,2013-05-03 21:15:00
3:35 PM,69.8,15.8,13,30.05,10.0,WSW,11.5,-,N/A,,Clear,250,2013-05-03 21:35:00
3:55 PM,69.8,15.8,13,30.04,10.0,WSW,10.4,-,N/A,,Clear,240,2013-05-03 21:55:00
4:15 PM,69.8,14.0,12,30.03,10.0,WSW,11.5,-,N/A,,Clear,240,2013-05-03 22:15:00
4:35 PM,69.8,10.4,10,30.03,10.0,SW,13.8,17.3,N/A,,Clear,230,2013-05-03 22:35:00
4:55 PM,66.2,10.4,11,30.03,10.0,WSW,13.8,-,N/A,,Clear,240,2013-05-03 22:55:00
5:15 PM,64.4,12.2,13,30.03,10.0,SW,13.8,-,N/A,,Clear,230,2013-05-03 23:15:00
5:35 PM,62.6,14.0,15,30.03,10.0,SW,12.7,-,N/A,,Clear,230,2013-05-03 23:35:00
5:55 PM,62.6,15.8,16,30.03,10.0,WSW,12.7,-,N/A,,Clear,250,2013-05-03 23:55:00
6:15 PM,62.6,14.0,15,30.02,10.0,WSW,11.5,-,N/A,,Clear,240,2013-05-04 00:15:00
6:35 PM,62.6,15.8,16,30.02,10.0,SW,8.1,-,N/A,,Clear,230,2013-05-04 00:35:00
6:55 PM,60.8,21.2,22,30.02,10.0,SW,5.8,-,N/A,,Clear,230,2013-05-04 00:55:00
7:15 PM,62.6,17.6,18,30.01,10.0,WSW,4.6,-,N/A,,Clear,240,2013-05-04 01:15:00
7:35 PM,62.6,14.0,15,30.01,10.0,Calm,Calm,-,N/A,,Clear,0,2013-05-04 01:35:00
7:55 PM,60.8,23.0,23,30.01,10.0,Calm,Calm,-,N/A,,Clear,0,2013-05-04 01:55:00
8:15 PM,59.0,17.6,20,30.01,10.0,East,4.6,-,N/A,,Clear,80,2013-05-04 02:15:00
8:35 PM,50.0,23.0,35,30.01,10.0,SE,6.9,-,N/A,,Clear,140,2013-05-04 02:35:00
8:55 PM,51.8,21.2,30,30.01,10.0,ESE,4.6,-,N/A,,Clear,110,2013-05-04 02:55:00
9:15 PM,51.8,17.6,26,30.01,10.0,East,5.8,-,N/A,,Clear,100,2013-05-04 03:15:00
9:55 PM,50.0,21.2,32,30.02,10.0,Calm,Calm,-,N/A,,Clear,0,2013-05-04 03:55:00
10:15 PM,50.0,19.4,30,30.02,10.0,East,4.6,-,N/A,,Clear,90,2013-05-04 04:15:00
10:35 PM,46.4,21.2,37,30.02,10.0,ESE,6.9,-,N/A,,Scattered Clouds,120,2013-05-04 04:35:00
10:55 PM,46.4,21.2,37,30.02,10.0,East,6.9,-,N/A,,Mostly Cloudy,100,2013-05-04 04:55:00
11:15 PM,46.4,21.2,37,30.02,10.0,Calm,Calm,-,N/A,,Overcast,0,2013-05-04 05:15:00
11:35 PM,46.4,17.6,32,30.01,10.0,SSE,3.5,-,N/A,,Scattered Clouds,150,2013-05-04 05:35:00
11:55 PM,44.6,21.2,39,30.01,10.0,Calm,Calm,-,N/A,,Clear,0,2013-05-04 05:55:00